Time,TemperatureF,DewpointF,PressureIn,WindDirection,WindDirectionDegrees,WindSpeedMPH,WindSpeedGustMPH,Humidity,HourlyPrecipIn,Conditions,Clouds,dailyrainin,SolarRadiationWatts/m^2,SoftwareType,DateUTC
2013-02-19 00:11:00,33.0,29.0,-100.00,SSW,208,3.0,4.0,84,-99.99,,,0.00,0.000000,,2013-02-19 08:11:00,
2013-02-19 01:11:00,32.0,29.0,-100.00,South,181,1.0,3.0,86,-99.99,,,-99.99,0.000000,,2013-02-19 09:11:00,
2013-02-19 02:11:00,32.0,29.0,-100.00,SE,130,1.0,2.0,86,-99.99,,,0.00,0.000000,,2013-02-19 10:11:00,
2013-02-19 03:11:00,31.0,29.0,-100.00,SSW,213,1.0,2.0,89,-99.99,,,0.00,0.000000,,2013-02-19 11:11:00,
2013-02-19 04:12:00,31.0,28.0,-100.00,SE,130,2.0,4.0,90,-99.99,,,0.00,0.000000,,2013-02-19 12:12:00,
2013-02-19 05:11:00,30.0,28.0,-100.00,East,100,0.0,2.0,91,-99.99,,,0.00,0.000000,,2013-02-19 13:11:00,
2013-02-19 06:11:00,29.0,27.0,-100.00,East,90,2.0,3.0,93,-99.99,,,0.00,0.000000,,2013-02-19 14:11:00,
2013-02-19 07:11:00,28.0,27.0,-100.00,SSE,154,1.0,2.0,95,-99.99,,,0.00,0.000000,,2013-02-19 15:11:00,
2013-02-19 08:11:00,29.0,28.0,-100.00,SSW,194,2.0,3.0,93,-99.99,,,0.00,7.670000,,2013-02-19 16:11:00,
2013-02-19 10:11:00,33.0,30.0,-100.00,SW,231,1.0,2.0,87,-99.99,,,0.00,138.880005,,2013-02-19 18:11:00,
2013-02-19 12:11:00,43.0,31.0,-100.00,North,354,1.0,4.0,63,-99.99,,,0.00,525.080017,,2013-02-19 20:11:00,
2013-02-19 13:11:00,47.0,31.0,-100.00,NW,312,2.0,6.0,54,-99.99,,,0.00,564.950012,,2013-02-19 21:11:00,
2013-02-19 14:11:00,50.0,29.0,-100.00,NE,50,3.0,9.0,45,-99.99,,,0.00,551.349976,,2013-02-19 22:11:00,
2013-02-19 15:11:00,51.0,29.0,-100.00,South,187,2.0,6.0,42,-99.99,,,0.00,484.750000,,2013-02-19 23:11:00,
2013-02-19 16:11:00,52.0,25.0,-100.00,SW,226,2.0,5.0,35,-99.99,,,0.00,367.140015,,2013-02-20 00:11:00,
2013-02-19 17:11:00,52.0,26.0,-100.00,SSW,200,2.0,5.0,35,-99.99,,,0.00,224.300003,,2013-02-20 01:11:00,
2013-02-19 18:11:00,50.0,27.0,-100.00,NW,310,2.0,8.0,40,-99.99,,,0.00,41.490002,,2013-02-20 02:11:00,
2013-02-19 19:12:00,46.0,30.0,-100.00,West,274,3.0,8.0,53,-99.99,,,0.00,0.120000,,2013-02-20 03:12:00,
2013-02-19 20:11:00,43.0,29.0,-100.00,SSW,198,2.0,4.0,58,-99.99,,,0.00,0.000000,,2013-02-20 04:11:00,
2013-02-19 21:12:00,39.0,29.0,-100.00,SE,145,2.0,3.0,68,-99.99,,,0.00,0.000000,,2013-02-20 05:12:00,
2013-02-19 22:11:00,37.0,29.0,-100.00,South,182,0.0,3.0,73,-99.99,,,0.00,0.000000,,2013-02-20 06:11:00,
2013-02-19 23:11:00,36.0,29.0,-100.00,SSE,165,1.0,2.0,75,-99.99,,,0.00,0.000000,,2013-02-20 07:11:00,